createdAt,value
2023-05-08T00:00:23.038Z,27.90
2023-05-08T00:02:54.759Z,28.87
2023-05-08T00:05:26.568Z,26.13
2023-05-08T00:08:01.518Z,27.17
2023-05-08T00:10:33.533Z,25.20
2023-05-08T00:13:05.351Z,29.37
2023-05-08T00:15:37.223Z,26.00
2023-05-08T00:18:09.134Z,23.50
2023-05-08T00:20:41.790Z,23.67
2023-05-08T00:23:13.491Z,29.27
2023-05-08T00:25:45.318Z,23.93
2023-05-08T00:28:17.019Z,25.60
2023-05-08T00:30:48.731Z,28.73
2023-05-08T00:33:20.482Z,29.43
2023-05-08T00:35:58.197Z,26.37
2023-05-08T00:38:34.401Z,29.33
2023-05-08T00:41:06.128Z,23.97
2023-05-08T00:43:39.944Z,30.73
2023-05-08T00:46:12.033Z,30.97
2023-05-08T00:48:45.918Z,30.20
2023-05-08T00:51:17.988Z,34.90
2023-05-08T00:53:50.317Z,28.90
2023-05-08T00:56:23.779Z,28.37
2023-05-08T00:58:55.625Z,28.40
2023-05-08T01:01:27.509Z,28.83
2023-05-08T01:03:59.282Z,28.33
2023-05-08T01:06:31.823Z,26.60
2023-05-08T01:09:04.095Z,32.43
2023-05-08T01:11:49.801Z,31.00
2023-05-08T01:14:52.010Z,29.50
2023-05-08T01:17:28.007Z,26.43
2023-05-08T01:20:09.130Z,25.47
2023-05-08T01:23:00.749Z,26.70
2023-05-08T01:25:32.384Z,26.20
2023-05-08T01:28:38.689Z,25.50
2023-05-08T01:31:30.252Z,26.03
2023-05-08T01:34:23.513Z,26.83
2023-05-08T01:37:04.353Z,27.40
2023-05-08T01:40:11.582Z,27.00
2023-05-08T01:42:52.304Z,29.47
2023-05-08T01:45:30.980Z,23.67
2023-05-08T01:48:10.977Z,24.50
2023-05-08T01:51:14.229Z,21.83
2023-05-08T01:54:00.867Z,21.43
2023-05-08T01:56:34.616Z,26.27
2023-05-08T01:59:07.707Z,24.90
2023-05-08T02:01:40.541Z,24.17
2023-05-08T02:04:14.396Z,29.33
2023-05-08T02:06:46.523Z,24.93
2023-05-08T02:09:22.601Z,30.40
2023-05-08T02:11:56.743Z,23.30
2023-05-08T02:14:29.770Z,27.70
2023-05-08T02:17:03.535Z,26.33
2023-05-08T02:19:38.787Z,27.20
2023-05-08T02:22:11.312Z,26.27
2023-05-08T02:24:45.208Z,25.07
2023-05-08T02:27:17.487Z,19.77
2023-05-08T02:29:51.553Z,23.97
2023-05-08T02:32:26.534Z,22.27
2023-05-08T02:35:03.437Z,23.80
2023-05-08T02:37:36.434Z,26.17
2023-05-08T02:40:10.143Z,25.37
2023-05-08T02:42:42.445Z,24.90
2023-05-08T02:45:14.961Z,23.20
2023-05-08T02:47:55.798Z,24.57
2023-05-08T02:50:33.129Z,23.70
2023-05-08T02:53:09.667Z,27.90
2023-05-08T02:55:52.956Z,23.80
2023-05-08T02:58:48.975Z,27.30
2023-05-08T03:01:37.912Z,21.67
2023-05-08T03:04:11.856Z,25.53
2023-05-08T03:06:47.092Z,26.07
2023-05-08T03:09:21.573Z,25.60
2023-05-08T03:12:02.421Z,26.67
2023-05-08T03:14:39.295Z,27.50
2023-05-08T03:17:15.304Z,26.30
2023-05-08T03:19:52.624Z,24.90
2023-05-08T03:22:25.535Z,23.13
2023-05-08T03:24:59.966Z,23.93
2023-05-08T03:27:33.078Z,20.07
2023-05-08T03:30:06.215Z,21.63
2023-05-08T03:32:39.005Z,20.88
2023-05-08T03:35:11.248Z,21.30
2023-05-08T03:37:43.368Z,24.40
2023-05-08T03:40:15.283Z,24.07
2023-05-08T03:42:48.743Z,25.90
2023-05-08T03:45:20.849Z,27.47
2023-05-08T03:47:53.972Z,24.13
2023-05-08T03:50:26.069Z,19.87
2023-05-08T03:52:59.424Z,21.97
2023-05-08T03:55:32.207Z,21.67
2023-05-08T03:58:20.922Z,23.30
2023-05-08T04:01:08.962Z,21.60
2023-05-08T04:04:01.296Z,26.25
2023-05-08T04:06:56.918Z,18.97
2023-05-08T04:09:35.780Z,32.23
2023-05-08T04:12:17.974Z,23.50
2023-05-08T04:15:06.035Z,27.00
2023-05-08T04:17:50.935Z,22.87
2023-05-08T04:20:26.468Z,25.73
2023-05-08T04:22:59.029Z,25.50
2023-05-08T04:25:33.537Z,26.30
2023-05-08T04:28:06.199Z,23.53
2023-05-08T04:30:39.203Z,28.33
2023-05-08T04:33:12.642Z,24.40
2023-05-08T04:35:46.275Z,21.83
2023-05-08T04:38:18.110Z,24.77
2023-05-08T04:40:49.854Z,21.83
2023-05-08T04:43:21.782Z,24.40
2023-05-08T04:45:53.518Z,25.03
2023-05-08T04:48:25.906Z,23.23
2023-05-08T04:50:58.140Z,26.70
2023-05-08T04:53:29.823Z,19.53
2023-05-08T04:56:01.643Z,25.63
2023-05-08T04:58:33.312Z,24.50
2023-05-08T05:01:05.425Z,25.50
2023-05-08T05:03:37.114Z,26.27
2023-05-08T05:06:09.405Z,24.57
2023-05-08T05:08:41.097Z,26.37
2023-05-08T05:11:12.772Z,33.77
2023-05-08T05:13:44.506Z,33.00
2023-05-08T05:16:16.299Z,31.87
2023-05-08T05:18:48.050Z,29.40
2023-05-08T05:21:20.102Z,25.40
2023-05-08T05:23:52.047Z,27.13
2023-05-08T05:26:23.852Z,30.52
2023-05-08T05:28:55.629Z,28.17
2023-05-08T05:31:29.616Z,28.33
2023-05-08T05:34:01.479Z,27.00
2023-05-08T05:36:33.236Z,31.70
2023-05-08T05:39:05.021Z,29.50
2023-05-08T05:41:36.729Z,33.87
2023-05-08T05:44:08.469Z,37.90
2023-05-08T05:46:42.115Z,36.17
2023-05-08T05:49:15.332Z,37.40
2023-05-08T05:51:47.042Z,40.30
2023-05-08T05:54:18.801Z,37.53
2023-05-08T05:56:50.580Z,34.77
2023-05-08T05:59:22.583Z,35.73
2023-05-08T06:01:54.262Z,36.73
2023-05-08T06:04:26.458Z,34.10
2023-05-08T06:06:58.343Z,34.57
2023-05-08T06:09:30.054Z,40.60
2023-05-08T06:12:01.953Z,36.47
2023-05-08T06:14:33.862Z,36.27
2023-05-08T06:17:05.809Z,40.57
2023-05-08T06:19:37.595Z,33.13
2023-05-08T06:22:09.441Z,37.72
2023-05-08T06:24:41.183Z,31.90
2023-05-08T06:27:12.901Z,29.20
2023-05-08T06:29:44.574Z,40.70
2023-05-08T06:32:16.314Z,32.10
2023-05-08T06:34:48.430Z,30.93
2023-05-08T06:37:20.129Z,31.87
2023-05-08T06:40:03.923Z,29.27
2023-05-08T06:42:43.113Z,31.43
2023-05-08T06:45:15.182Z,38.87
2023-05-08T06:47:47.218Z,31.87
2023-05-08T06:50:19.118Z,31.07
2023-05-08T06:52:50.861Z,35.10
2023-05-08T06:55:22.775Z,35.50
2023-05-08T06:57:54.571Z,31.50
2023-05-08T07:00:26.592Z,36.97
2023-05-08T07:02:58.409Z,32.67
2023-05-08T07:05:30.202Z,28.67
2023-05-08T07:08:03.048Z,30.00
2023-05-08T07:10:34.820Z,30.10
2023-05-08T07:13:06.599Z,29.73
2023-05-08T07:15:39.084Z,34.60
2023-05-08T07:18:10.911Z,33.38
2023-05-08T07:20:42.747Z,27.67
2023-05-08T07:23:14.423Z,24.60
2023-05-08T07:25:46.254Z,29.70
2023-05-08T07:28:18.025Z,25.87
2023-05-08T07:30:49.785Z,25.83
2023-05-08T07:33:21.568Z,24.43
2023-05-08T07:35:53.661Z,27.20
2023-05-08T07:38:25.504Z,28.90
2023-05-08T07:40:57.887Z,21.73
2023-05-08T07:43:29.645Z,22.03
2023-05-08T07:46:01.428Z,24.50
2023-05-08T07:48:33.175Z,24.63
2023-05-08T07:51:05.089Z,22.80
2023-05-08T07:53:37.010Z,23.80
2023-05-08T07:56:08.820Z,19.27
2023-05-08T07:58:42.518Z,18.70
2023-05-08T08:01:14.235Z,18.50
2023-05-08T08:03:46.626Z,18.70
2023-05-08T08:06:18.618Z,16.03
2023-05-08T08:08:50.378Z,16.57
2023-05-08T08:11:22.721Z,29.23
2023-05-08T08:13:54.421Z,21.10
2023-05-08T08:16:27.001Z,24.57
2023-05-08T08:18:59.574Z,21.60
2023-05-08T08:21:31.510Z,22.47
2023-05-08T08:24:03.358Z,23.20
2023-05-08T08:26:35.393Z,22.07
2023-05-08T08:29:07.142Z,21.23
2023-05-08T08:31:39.002Z,24.10
2023-05-08T08:34:10.908Z,20.70
2023-05-08T08:36:42.721Z,20.67
2023-05-08T08:39:15.390Z,20.40
2023-05-08T08:41:47.297Z,23.53
2023-05-08T08:44:19.084Z,21.60
2023-05-08T08:46:52.737Z,26.43
2023-05-08T08:49:43.104Z,24.07
2023-05-08T08:52:31.873Z,19.50
2023-05-08T08:55:08.118Z,23.77
2023-05-08T08:57:48.205Z,21.17
2023-05-08T09:00:22.264Z,20.67
2023-05-08T09:02:54.407Z,23.40
2023-05-08T09:05:26.616Z,23.33
2023-05-08T09:07:59.423Z,22.77
2023-05-08T09:10:31.169Z,23.40
2023-05-08T09:13:06.009Z,23.83
2023-05-08T09:15:37.854Z,21.37
2023-05-08T09:18:09.645Z,22.17
2023-05-08T09:20:42.145Z,20.23
2023-05-08T09:23:17.218Z,19.50
2023-05-08T09:25:53.730Z,21.47
2023-05-08T09:28:26.193Z,19.00
2023-05-08T09:30:59.882Z,17.80
2023-05-08T09:33:31.965Z,17.40
2023-05-08T09:36:04.093Z,17.03
2023-05-08T09:38:37.030Z,18.87
2023-05-08T09:41:16.555Z,20.33
2023-05-08T09:44:02.682Z,17.90
2023-05-08T09:46:34.894Z,16.53
2023-05-08T09:49:06.563Z,15.13
2023-05-08T09:51:38.266Z,14.27
2023-05-08T09:54:18.115Z,12.90
2023-05-08T09:56:49.871Z,15.40
2023-05-08T09:59:34.179Z,16.17
2023-05-08T10:02:12.977Z,18.00
2023-05-08T10:04:44.786Z,14.60
2023-05-08T10:07:16.607Z,13.67
2023-05-08T10:10:07.162Z,13.30
2023-05-08T10:12:40.278Z,11.30
2023-05-08T10:15:12.344Z,10.93
2023-05-08T10:18:08.700Z,8.93
2023-05-08T10:20:44.297Z,9.40
2023-05-08T10:23:17.765Z,8.80
2023-05-08T10:25:55.835Z,8.73
2023-05-08T10:28:37.386Z,8.60
2023-05-08T10:31:13.364Z,11.13
2023-05-08T10:33:48.698Z,7.67
2023-05-08T10:36:21.931Z,6.03
2023-05-08T10:38:54.255Z,6.83
2023-05-08T10:41:26.696Z,7.17
2023-05-08T10:44:03.046Z,7.93
2023-05-08T10:47:03.326Z,7.33
2023-05-08T10:49:48.949Z,7.37
2023-05-08T10:52:35.578Z,7.17
2023-05-08T10:55:20.053Z,7.77
2023-05-08T10:58:11.723Z,6.70
2023-05-08T11:00:52.459Z,6.07
2023-05-08T11:03:32.069Z,6.87
2023-05-08T11:06:05.211Z,6.70
2023-05-08T11:08:50.968Z,6.03
2023-05-08T11:11:33.112Z,6.10
2023-05-08T11:14:07.850Z,5.90
2023-05-08T11:16:54.954Z,6.60
2023-05-08T11:19:27.898Z,7.23
2023-05-08T11:22:23.805Z,6.60
2023-05-08T11:24:56.780Z,6.93
2023-05-08T11:28:00.819Z,6.03
2023-05-08T11:30:32.453Z,6.90
2023-05-08T11:33:04.595Z,6.67
2023-05-08T11:35:50.128Z,6.57
2023-05-08T11:38:32.447Z,7.80
2023-05-08T11:41:09.311Z,6.67
2023-05-08T11:44:14.874Z,7.00
2023-05-08T11:46:54.861Z,6.17
2023-05-08T11:49:29.800Z,6.73
2023-05-08T11:52:04.311Z,7.10
2023-05-08T11:54:36.749Z,6.13
2023-05-08T11:57:08.482Z,6.83
2023-05-08T11:59:41.977Z,5.90
2023-05-08T12:02:13.765Z,5.93
2023-05-08T12:04:48.785Z,5.90
2023-05-08T12:07:21.816Z,7.60
2023-05-08T12:09:53.500Z,7.13
2023-05-08T12:12:39.621Z,5.93
2023-05-08T12:15:13.669Z,6.40
2023-05-08T12:17:45.416Z,7.50
2023-05-08T12:20:19.141Z,6.33
2023-05-08T12:22:52.564Z,7.50
2023-05-08T12:25:25.938Z,8.57
2023-05-08T12:27:59.920Z,7.73
2023-05-08T12:30:31.689Z,10.13
2023-05-08T12:33:04.780Z,12.63
2023-05-08T12:35:38.477Z,11.50
2023-05-08T12:38:11.893Z,11.20
2023-05-08T12:40:45.865Z,12.13
2023-05-08T12:43:17.569Z,12.43
2023-05-08T12:45:52.568Z,13.13
2023-05-08T12:48:24.329Z,13.03
2023-05-08T12:51:01.889Z,13.13
2023-05-08T12:53:33.999Z,17.00
2023-05-08T12:56:06.222Z,13.30
2023-05-08T12:58:38.470Z,13.30
2023-05-08T13:01:15.625Z,11.87
2023-05-08T13:04:01.513Z,13.07
2023-05-08T13:06:34.341Z,11.97
2023-05-08T13:09:06.216Z,13.80
2023-05-08T13:11:39.252Z,11.80
2023-05-08T13:14:11.004Z,11.70
2023-05-08T13:16:47.762Z,10.67
2023-05-08T13:19:19.586Z,12.00
2023-05-08T13:21:52.867Z,11.73
2023-05-08T13:24:25.769Z,14.17
2023-05-08T13:26:57.509Z,11.70
2023-05-08T13:29:29.251Z,13.63
2023-05-08T13:32:01.146Z,13.47
2023-05-08T13:34:32.936Z,12.40
2023-05-08T13:37:04.676Z,12.27
2023-05-08T13:39:37.728Z,13.20
2023-05-08T13:42:09.525Z,12.73
2023-05-08T13:44:41.316Z,13.33
2023-05-08T13:47:13.131Z,12.50
2023-05-08T13:49:46.974Z,14.85
2023-05-08T13:52:18.790Z,12.50
2023-05-08T13:54:50.555Z,12.40
2023-05-08T13:57:22.874Z,11.70
2023-05-08T13:59:54.574Z,13.87
2023-05-08T14:02:26.878Z,10.83
2023-05-08T14:04:58.774Z,12.63
2023-05-08T14:07:30.520Z,12.27
2023-05-08T14:10:02.641Z,13.77
2023-05-08T14:12:36.146Z,13.73
2023-05-08T14:15:09.256Z,15.47
2023-05-08T14:17:42.321Z,12.40
2023-05-08T14:20:14.100Z,13.43
2023-05-08T14:22:46.269Z,14.67
2023-05-08T14:25:19.026Z,14.97
2023-05-08T14:27:51.143Z,14.40
2023-05-08T14:30:23.004Z,12.90
2023-05-08T14:32:54.843Z,13.50
2023-05-08T14:35:26.563Z,13.50
2023-05-08T14:37:58.309Z,14.90
2023-05-08T14:40:30.086Z,15.20
2023-05-08T14:43:01.753Z,17.60
2023-05-08T14:45:33.433Z,16.70
2023-05-08T14:48:06.158Z,16.50
2023-05-08T14:50:38.299Z,16.03
2023-05-08T14:53:10.097Z,17.40
2023-05-08T14:55:42.245Z,18.20
2023-05-08T14:58:14.289Z,16.53
2023-05-08T15:00:46.195Z,19.57
2023-05-08T15:03:17.998Z,15.90
2023-05-08T15:05:49.763Z,15.97
2023-05-08T15:08:21.441Z,15.90
2023-05-08T15:10:53.204Z,17.23
2023-05-08T15:13:24.959Z,16.57
2023-05-08T15:15:58.305Z,20.47
2023-05-08T15:18:29.972Z,16.80
2023-05-08T15:21:02.058Z,21.53
2023-05-08T15:23:33.740Z,21.07
2023-05-08T15:26:05.727Z,27.03
2023-05-08T15:28:40.530Z,22.30
2023-05-08T15:31:12.178Z,24.40
2023-05-08T15:33:45.251Z,21.50
2023-05-08T15:36:17.232Z,25.73
2023-05-08T15:38:53.868Z,29.53
2023-05-08T15:41:25.621Z,25.40
2023-05-08T15:43:57.309Z,24.98
2023-05-08T15:46:29.094Z,29.07
2023-05-08T15:49:02.680Z,26.23
2023-05-08T15:51:34.782Z,32.47
2023-05-08T15:54:06.517Z,25.23
2023-05-08T15:56:38.236Z,26.70
2023-05-08T15:59:10.096Z,25.50
2023-05-08T16:01:42.289Z,27.87
2023-05-08T16:04:14.163Z,26.00
2023-05-08T16:06:45.835Z,33.90
2023-05-08T16:09:17.511Z,30.20
2023-05-08T16:11:49.272Z,29.27
2023-05-08T16:14:21.070Z,33.33
2023-05-08T16:16:52.782Z,28.53
2023-05-08T16:19:24.488Z,27.47
2023-05-08T16:21:56.849Z,27.37
2023-05-08T16:24:28.789Z,24.83
2023-05-08T16:27:00.798Z,26.80
2023-05-08T16:29:32.489Z,22.40
2023-05-08T16:32:04.324Z,22.20
2023-05-08T16:34:36.622Z,24.47
2023-05-08T16:37:08.423Z,23.67
2023-05-08T16:39:40.118Z,20.30
2023-05-08T16:42:11.889Z,25.83
2023-05-08T16:44:43.542Z,25.57
2023-05-08T16:47:15.339Z,20.37
2023-05-08T16:49:47.055Z,30.43
2023-05-08T16:52:18.779Z,21.80
2023-05-08T16:54:50.718Z,23.13
2023-05-08T16:57:22.444Z,24.43
2023-05-08T16:59:54.451Z,27.37
2023-05-08T17:02:26.246Z,23.17
2023-05-08T17:04:57.999Z,24.50
2023-05-08T17:07:29.645Z,24.70
2023-05-08T17:10:01.668Z,21.88
2023-05-08T17:12:33.525Z,19.53
2023-05-08T17:15:05.747Z,21.40
2023-05-08T17:17:37.546Z,20.40
2023-05-08T17:20:09.878Z,19.67
2023-05-08T17:22:41.734Z,23.87
2023-05-08T17:25:13.449Z,22.07
2023-05-08T17:27:45.202Z,21.70
2023-05-08T17:30:17.058Z,23.70
2023-05-08T17:32:51.621Z,23.03
2023-05-08T17:35:23.589Z,20.50
2023-05-08T17:37:55.301Z,23.40
2023-05-08T17:40:28.755Z,25.03
2023-05-08T17:43:00.442Z,23.33
2023-05-08T17:45:32.400Z,26.50
2023-05-08T17:48:04.942Z,28.60
2023-05-08T17:50:39.351Z,22.20
2023-05-08T17:53:11.034Z,22.17
2023-05-08T17:55:42.745Z,21.13
2023-05-08T17:58:14.466Z,23.73
2023-05-08T18:00:46.187Z,24.33
2023-05-08T18:03:17.978Z,21.60
2023-05-08T18:05:49.931Z,21.20
2023-05-08T18:08:22.003Z,19.83
2023-05-08T18:10:53.694Z,21.17
2023-05-08T18:13:25.634Z,25.10
2023-05-08T18:15:57.635Z,21.80
2023-05-08T18:18:29.497Z,19.30
2023-05-08T18:21:01.231Z,20.40
2023-05-08T18:23:33.046Z,22.00
2023-05-08T18:26:05.254Z,19.90
2023-05-08T18:28:37.081Z,17.63
2023-05-08T18:31:08.971Z,19.50
2023-05-08T18:33:40.819Z,26.90
2023-05-08T18:36:12.722Z,18.90
2023-05-08T18:38:44.514Z,17.23
2023-05-08T18:41:16.280Z,16.97
2023-05-08T18:43:48.019Z,17.05
2023-05-08T18:46:19.788Z,11.73
2023-05-08T18:48:51.588Z,13.60
2023-05-08T18:51:23.406Z,16.13
2023-05-08T18:53:57.118Z,14.10
2023-05-08T18:56:29.049Z,12.70
2023-05-08T18:59:00.904Z,13.93
2023-05-08T19:01:32.674Z,12.70
2023-05-08T19:04:04.680Z,13.52
2023-05-08T19:06:36.597Z,14.10
2023-05-08T19:09:08.956Z,15.33
2023-05-08T19:11:40.788Z,13.63
2023-05-08T19:14:12.471Z,12.40
2023-05-08T19:16:44.267Z,10.90
2023-05-08T19:19:16.068Z,11.17
2023-05-08T19:21:47.860Z,11.70
2023-05-08T19:24:20.955Z,12.77
2023-05-08T19:26:52.753Z,12.33
2023-05-08T19:29:24.474Z,12.48
2023-05-08T19:31:59.001Z,11.83
2023-05-08T19:34:32.238Z,13.60
2023-05-08T19:37:04.155Z,13.00
2023-05-08T19:39:35.845Z,14.07
2023-05-08T19:42:07.652Z,16.67
2023-05-08T19:44:39.693Z,15.20
2023-05-08T19:47:11.499Z,14.50
2023-05-08T19:49:43.215Z,11.87
2023-05-08T19:52:14.962Z,13.10
2023-05-08T19:54:46.779Z,12.27
2023-05-08T19:57:18.519Z,11.40
2023-05-08T19:59:50.554Z,11.53
2023-05-08T20:02:22.276Z,13.37
2023-05-08T20:05:21.185Z,14.40
2023-05-08T20:07:45.766Z,15.90
2023-05-08T20:10:17.537Z,15.13
2023-05-08T20:12:49.301Z,16.73
2023-05-08T20:15:21.052Z,17.10
2023-05-08T20:17:52.994Z,18.17
2023-05-08T20:20:27.063Z,18.20
2023-05-08T20:22:58.762Z,14.97
2023-05-08T20:25:30.519Z,14.82
2023-05-08T20:28:02.229Z,15.73
2023-05-08T20:30:34.036Z,19.90
2023-05-08T20:33:05.901Z,16.57
2023-05-08T20:35:37.878Z,12.83
2023-05-08T20:38:09.706Z,20.17
2023-05-08T20:40:41.652Z,18.50
2023-05-08T20:43:13.427Z,16.53
2023-05-08T20:45:45.230Z,16.63
2023-05-08T20:48:17.047Z,18.93
2023-05-08T20:50:48.968Z,20.30
2023-05-08T20:53:20.689Z,17.40
2023-05-08T20:56:00.569Z,18.73
2023-05-08T20:58:32.344Z,18.13
2023-05-08T21:01:04.200Z,18.97
2023-05-08T21:03:35.953Z,19.23
2023-05-08T21:06:07.853Z,18.10
2023-05-08T21:08:39.787Z,19.93
2023-05-08T21:11:12.452Z,20.30
2023-05-08T21:13:44.854Z,18.87
2023-05-08T21:16:16.672Z,19.23
2023-05-08T21:18:48.540Z,21.10
2023-05-08T21:21:20.438Z,21.03
2023-05-08T21:23:52.179Z,23.80
2023-05-08T21:26:23.944Z,20.50
2023-05-08T21:28:58.565Z,21.33
2023-05-08T21:31:37.076Z,23.33
2023-05-08T21:34:08.849Z,22.20
2023-05-08T21:36:40.548Z,22.83
2023-05-08T21:39:12.269Z,21.17
2023-05-08T21:41:44.545Z,23.80
2023-05-08T21:44:16.291Z,19.40
2023-05-08T21:46:48.101Z,23.17
2023-05-08T21:49:19.849Z,20.37
2023-05-08T21:51:52.947Z,24.03
2023-05-08T21:54:24.802Z,22.37
2023-05-08T21:56:56.520Z,24.13
2023-05-08T21:59:28.180Z,23.60
2023-05-08T22:01:59.906Z,23.40
2023-05-08T22:04:31.610Z,25.60
2023-05-08T22:07:03.361Z,28.37
2023-05-08T22:09:35.070Z,24.37
2023-05-08T22:12:08.263Z,25.70
2023-05-08T22:14:39.928Z,24.73
2023-05-08T22:17:11.777Z,23.07
2023-05-08T22:19:43.515Z,26.20
2023-05-08T22:22:15.303Z,22.80
2023-05-08T22:24:47.045Z,26.93
2023-05-08T22:27:18.745Z,27.33
2023-05-08T22:29:50.450Z,22.50
2023-05-08T22:32:22.227Z,24.80
2023-05-08T22:34:55.551Z,23.80
2023-05-08T22:37:27.264Z,28.60
2023-05-08T22:39:58.952Z,26.20
2023-05-08T22:42:30.747Z,25.00
2023-05-08T22:45:02.452Z,25.23
2023-05-08T22:47:34.618Z,25.20
2023-05-08T22:50:08.636Z,26.93
2023-05-08T22:52:40.521Z,25.50
2023-05-08T22:55:12.888Z,23.67
2023-05-08T22:57:44.839Z,25.07
2023-05-08T23:00:16.679Z,32.37
2023-05-08T23:02:48.362Z,22.17
2023-05-08T23:05:20.205Z,24.97
2023-05-08T23:07:52.006Z,24.90
2023-05-08T23:10:23.722Z,33.00
2023-05-08T23:12:55.420Z,28.60
2023-05-08T23:15:27.132Z,29.85
2023-05-08T23:17:58.902Z,30.60
2023-05-08T23:20:30.756Z,23.23
2023-05-08T23:23:02.493Z,27.00
2023-05-08T23:25:34.167Z,27.40
2023-05-08T23:28:06.039Z,28.07
2023-05-08T23:30:37.750Z,27.07
2023-05-08T23:33:09.463Z,31.23
2023-05-08T23:35:41.177Z,28.30
2023-05-08T23:38:12.906Z,29.10
2023-05-08T23:40:44.554Z,30.43
2023-05-08T23:43:16.342Z,28.60
2023-05-08T23:45:48.082Z,32.70
2023-05-08T23:48:19.795Z,24.63
2023-05-08T23:50:51.610Z,31.50
2023-05-08T23:53:23.474Z,31.37
2023-05-08T23:55:55.242Z,27.30
2023-05-08T23:58:26.942Z,26.70
